Time;durP1;ratioP1;P1;durP2;ratioP2;P2;SDS_P1;SDS_P2;PMS_P1;PMS_P2;Temp;Humidity;BMP_temperature;BMP_pressure;BME280_temperature;BME280_humidity;BME280_pressure;Samples;Min_cycle;Max_cycle;Signal;HPM_P1;HPM_P2
2021/12/05 00:16:55;;;;;;;3.00;2.20;;;;;;;15.33;41.93;91657.47;4977089;28;20552;-92
2021/12/05 00:20:47;;;;;;;2.30;1.98;;;;;;;15.32;41.66;91654.00;4898849;29;20040;-90
2021/12/05 00:23:12;;;;;;;3.72;2.22;;;;;;;15.31;41.66;91660.00;4901930;29;20455;-90
2021/12/05 00:25:38;;;;;;;;;;;;;;;15.31;41.73;91666.16;4912449;29;20408;-92
2021/12/05 00:28:30;;;;;;;2.05;1.75;;;;;;;15.32;41.71;91656.00;4930428;29;19926;-90
2021/12/05 00:39:07;;;;;;;2.42;1.85;;;;;;;15.35;41.96;91654.94;4992618;28;20092;-89
2021/12/05 00:54:46;;;;;;;2.92;1.70;;;;;;;15.36;41.92;91667.28;4958070;28;20112;-90
2021/12/05 00:57:25;;;;;;;2.35;1.92;;;;;;;15.37;41.92;91672.19;4977401;28;20031;-89
2021/12/05 00:59:57;;;;;;;2.60;2.00;;;;;;;15.34;41.66;91673.28;4964994;28;20214;-90
2021/12/05 01:15:04;;;;;;;2.33;1.92;;;;;;;15.35;41.72;91693.78;4991314;28;20045;-91
2021/12/05 01:17:54;;;;;;;2.28;1.58;;;;;;;15.38;41.80;91691.97;4987476;28;20046;-90
2021/12/05 01:20:20;;;;;;;2.53;2.00;;;;;;;15.33;41.71;91688.16;4977966;28;20066;-94
2021/12/05 01:22:54;;;;;;;2.08;1.63;;;;;;;15.42;41.63;91697.81;4975007;28;20799;-95
2021/12/05 01:25:29;;;;;;;1.77;1.58;;;;;;;15.40;41.55;91698.34;4989388;28;20097;-90
2021/12/05 01:28:06;;;;;;;2.53;1.80;;;;;;;15.41;41.61;91697.09;4976099;28;20038;-90
2021/12/05 01:31:00;;;;;;;4.32;1.80;;;;;;;15.39;41.68;91702.34;4976183;28;20045;-90
2021/12/05 01:36:10;;;;;;;1.63;1.40;;;;;;;15.36;41.76;91703.41;4991366;28;20053;-89
2021/12/05 01:38:56;;;;;;;2.20;1.58;;;;;;;15.29;41.95;91698.63;4991212;28;20061;-90
2021/12/05 01:55:13;;;;;;;1.58;1.48;;;;;;;15.41;41.70;91720.84;4990572;28;20378;-89
2021/12/05 02:00:50;;;;;;;2.17;1.30;;;;;;;15.37;41.63;91723.91;4989494;28;20035;-88
2021/12/05 02:33:06;;;;;;;1.33;1.20;;;;;;;15.33;41.96;91756.19;4930427;29;20130;-89
2021/12/05 02:35:56;;;;;;;1.55;1.10;;;;;;;15.37;41.99;91761.31;4929264;29;20047;-89
2021/12/05 02:43:36;;;;;;;1.15;1.00;;;;;;;15.36;41.82;91773.47;4915215;29;20039;-89
2021/12/05 02:46:04;;;;;;;1.67;1.40;;;;;;;15.33;42.07;91780.72;4929336;29;20044;-89
2021/12/05 02:48:31;;;;;;;1.90;1.52;;;;;;;15.29;41.88;91779.56;4964905;28;20247;-89
2021/12/05 02:50:59;;;;;;;1.27;1.17;;;;;;;15.33;42.00;91801.75;4973152;28;20040;-90
2021/12/05 02:53:39;;;;;;;1.63;1.25;;;;;;;15.34;42.05;91797.78;4972618;28;20693;-89
2021/12/05 02:56:05;;;;;;;1.80;1.50;;;;;;;15.35;41.93;91805.41;4990160;28;20049;-89
2021/12/05 03:01:19;;;;;;;2.17;1.50;;;;;;;15.34;41.84;91809.41;4987407;28;20039;-89
2021/12/05 03:03:45;;;;;;;2.25;1.38;;;;;;;15.38;41.87;91822.66;5009224;28;20042;-92
2021/12/05 03:06:20;;;;;;;1.60;1.40;;;;;;;15.33;42.07;91827.00;5008254;28;20071;-89
2021/12/05 03:08:46;;;;;;;1.65;1.40;;;;;;;15.35;42.00;91835.38;5008216;28;20064;-89
2021/12/05 03:11:12;;;;;;;1.55;1.30;;;;;;;15.33;41.77;91837.16;5007895;28;20038;-88
2021/12/05 03:13:39;;;;;;;1.17;0.95;;;;;;;15.34;41.90;91847.50;5000285;28;20168;-90
2021/12/05 03:16:05;;;;;;;1.50;1.20;;;;;;;15.32;41.90;91854.75;4979918;28;20045;-93
2021/12/05 03:18:30;;;;;;;1.58;1.30;;;;;;;15.38;41.85;91860.78;4982016;28;20405;-89
2021/12/05 03:20:58;;;;;;;1.90;1.45;;;;;;;15.32;42.00;91860.19;4989661;28;20072;-90
2021/12/05 03:23:23;;;;;;;1.48;1.10;;;;;;;15.38;42.04;91872.41;4956820;28;20042;-89
2021/12/05 03:25:49;;;;;;;1.63;1.25;;;;;;;15.37;41.88;91862.75;4971940;28;20484;-89
2021/12/05 03:28:14;;;;;;;1.45;1.08;;;;;;;15.42;41.96;91863.91;4971813;28;20048;-89
2021/12/05 03:30:40;;;;;;;1.30;1.00;;;;;;;15.29;42.01;91863.97;4971969;28;20038;-89
2021/12/05 03:33:05;;;;;;;1.52;1.20;;;;;;;15.37;41.76;91856.63;4987911;28;20051;-88
2021/12/05 03:35:31;;;;;;;1.20;1.10;;;;;;;15.36;42.02;91868.75;4972695;28;20039;-89
2021/12/05 03:37:56;;;;;;;1.85;1.45;;;;;;;15.34;42.01;91868.56;4987959;28;20050;-88
2021/12/05 03:40:23;;;;;;;1.63;1.20;;;;;;;15.40;41.89;91864.44;4987727;28;20052;-89
2021/12/05 03:42:49;;;;;;;1.48;1.17;;;;;;;15.38;41.77;91866.22;4956596;28;20093;-89
2021/12/05 03:45:18;;;;;;;1.10;1.00;;;;;;;15.38;41.95;91861.50;4972056;28;20038;-89
2021/12/05 03:47:43;;;;;;;1.10;1.00;;;;;;;15.33;42.35;91876.00;4999154;28;20034;-88
2021/12/05 03:50:10;;;;;;;1.23;1.13;;;;;;;15.43;41.89;91874.28;4974865;28;20220;-88
2021/12/05 03:52:35;;;;;;;1.17;0.98;;;;;;;15.37;41.34;91879.09;4975873;28;20034;-88
2021/12/05 03:55:00;;;;;;;1.08;0.98;;;;;;;15.39;42.04;91878.56;4992604;28;20049;-90
2021/12/05 03:57:26;;;;;;;1.38;1.10;;;;;;;15.33;41.93;91886.88;4975517;28;20042;-89
2021/12/05 03:59:51;;;;;;;1.45;1.35;;;;;;;15.46;41.60;91894.28;4960067;28;20551;-88
2021/12/05 04:02:17;;;;;;;1.10;1.00;;;;;;;15.37;41.83;91895.44;4974557;28;20038;-88
2021/12/05 04:04:42;;;;;;;1.30;1.20;;;;;;;15.34;41.87;91887.63;4959616;28;20089;-89
2021/12/05 04:07:08;;;;;;;1.20;1.02;;;;;;;15.34;42.13;91896.53;4975180;28;20116;-89
2021/12/05 04:09:34;;;;;;;1.10;1.00;;;;;;;15.34;41.89;91896.53;4992304;28;20031;-88
2021/12/05 04:12:01;;;;;;;1.40;1.17;;;;;;;15.32;42.09;91903.75;4991988;28;20089;-88
2021/12/05 04:14:29;;;;;;;1.30;1.20;;;;;;;15.30;42.10;91900.81;4997375;28;20342;-90
2021/12/05 04:16:55;;;;;;;1.02;0.90;;;;;;;15.35;42.27;91906.16;4997168;28;20089;-88
2021/12/05 04:19:20;;;;;;;1.27;1.10;;;;;;;15.38;42.07;91902.34;4958957;28;20529;-89
2021/12/05 04:21:46;;;;;;;1.20;1.00;;;;;;;15.40;41.84;91912.72;4991277;28;20053;-88
2021/12/05 04:24:11;;;;;;;0.90;0.80;;;;;;;15.40;41.79;91918.16;4991058;28;20039;-89
2021/12/05 04:26:37;;;;;;;0.93;0.88;;;;;;;15.34;41.85;91918.31;4971858;28;20054;-88
2021/12/05 04:29:03;;;;;;;1.10;1.00;;;;;;;15.34;42.04;91915.56;5003900;28;20035;-89
2021/12/05 04:31:29;;;;;;;0.90;0.80;;;;;;;15.38;42.19;91931.56;5004157;28;20039;-89
2021/12/05 04:33:54;;;;;;;0.88;0.85;;;;;;;15.40;42.08;91921.63;5005031;28;20504;-88
2021/12/05 04:36:19;;;;;;;2.13;1.27;;;;;;;15.35;41.83;91927.94;5003975;28;20034;-88
2021/12/05 04:38:45;;;;;;;0.82;0.80;;;;;;;15.36;42.02;91934.84;5007348;28;20050;-90
2021/12/05 04:41:11;;;;;;;1.20;0.98;;;;;;;15.36;41.83;91918.50;4974863;28;20042;-89
2021/12/05 04:43:38;;;;;;;1.10;0.98;;;;;;;15.34;42.16;91931.19;4991804;28;20038;-89
2021/12/05 04:46:06;;;;;;;0.82;0.80;;;;;;;15.46;41.84;91924.22;5006955;28;20030;-88
2021/12/05 04:48:32;;;;;;;1.10;1.00;;;;;;;15.37;41.88;91932.84;4991175;28;20404;-89
2021/12/05 04:50:58;;;;;;;0.90;0.80;;;;;;;15.37;41.92;91933.56;4982321;28;20030;-89
2021/12/05 04:53:26;;;;;;;1.27;1.10;;;;;;;15.40;41.96;91929.06;4974748;28;20456;-89
2021/12/05 04:55:52;;;;;;;0.70;0.70;;;;;;;15.36;42.18;91929.41;4991159;28;20047;-89
2021/12/05 04:58:17;;;;;;;1.08;0.80;;;;;;;15.38;41.81;91937.00;4990530;28;20050;-88
2021/12/05 05:00:44;;;;;;;0.75;0.75;;;;;;;15.34;42.11;91934.63;4974746;28;20501;-88
2021/12/05 05:03:09;;;;;;;0.98;0.82;;;;;;;15.35;41.98;91919.03;4990161;28;20038;-89
2021/12/05 05:05:35;;;;;;;0.93;0.80;;;;;;;15.39;41.75;91933.75;4958818;28;20057;-89
2021/12/05 05:08:01;;;;;;;1.00;0.90;;;;;;;15.36;41.84;91939.56;4991033;28;20487;-88
2021/12/05 05:10:29;;;;;;;0.80;0.80;;;;;;;15.35;41.92;91929.91;4974164;28;20093;-93
2021/12/05 05:12:54;;;;;;;0.65;0.65;;;;;;;15.34;41.87;91936.63;4974714;28;20127;-89
2021/12/05 05:15:23;;;;;;;1.23;0.82;;;;;;;15.36;41.71;91945.00;4974822;28;20043;-89
2021/12/05 05:17:50;;;;;;;1.13;0.90;;;;;;;15.41;41.81;91949.56;4994138;28;20037;-90
2021/12/05 05:20:40;;;;;;;0.82;0.70;;;;;;;15.38;41.64;91951.34;4990760;28;20030;-89
2021/12/05 05:23:18;;;;;;;0.88;0.80;;;;;;;15.41;41.70;91960.47;4970328;28;20046;-89
2021/12/05 05:39:38;;;;;;;0.75;0.75;;;;;;;15.34;41.92;91950.97;4981602;28;20041;-89
2021/12/05 05:47:09;;;;;;;0.90;0.68;;;;;;;15.38;41.96;91953.34;4977926;28;20402;-90
2021/12/05 05:52:09;;;;;;;1.00;0.70;;;;;;;15.33;41.80;91944.06;4989295;28;20104;-88
2021/12/05 05:54:34;;;;;;;0.90;0.80;;;;;;;15.30;42.07;91939.66;4974410;28;20490;-88
2021/12/05 05:57:05;;;;;;;1.35;1.00;;;;;;;15.30;42.14;91941.66;4989912;28;20054;-90
2021/12/05 05:59:37;;;;;;;0.80;0.80;;;;;;;15.32;41.87;91939.13;4989702;28;20512;-89
2021/12/05 06:03:20;;;;;;;0.93;0.70;;;;;;;15.34;41.83;91950.97;4972976;28;20042;-89
2021/12/05 06:04:48;;;;;;;2.15;0.80;;;;;;;15.32;41.66;91947.31;4989951;28;20030;-88
2021/12/05 06:07:15;;;;;;;0.90;0.80;;;;;;;15.34;41.86;91942.06;4956062;28;20035;-88
2021/12/05 06:09:41;;;;;;;1.00;0.73;;;;;;;15.38;41.87;91956.06;4970776;28;20118;-89
2021/12/05 06:12:07;;;;;;;1.58;1.33;;;;;;;15.36;42.02;91956.63;4972258;28;20031;-89
2021/12/05 06:14:32;;;;;;;1.60;0.80;;;;;;;15.39;41.62;91955.56;4970270;28;20328;-89
2021/12/05 06:16:58;;;;;;;0.75;0.60;;;;;;;15.36;41.73;91950.44;4972699;28;20888;-90
2021/12/05 06:19:23;;;;;;;0.80;0.65;;;;;;;15.36;41.70;91945.00;4973024;28;20030;-89
2021/12/05 06:21:49;;;;;;;0.82;0.77;;;;;;;15.37;41.78;91947.16;4989120;28;20524;-89
2021/12/05 06:24:15;;;;;;;0.63;0.63;;;;;;;15.34;41.93;91950.97;4973089;28;20573;-90
2021/12/05 06:26:41;;;;;;;1.40;1.10;;;;;;;15.38;41.90;91959.53;4973364;28;20236;-89
2021/12/05 06:31:54;;;;;;;0.80;0.77;;;;;;;15.35;41.84;91966.06;4989512;28;20034;-89
2021/12/05 06:42:56;;;;;;;1.20;0.90;;;;;;;15.33;41.56;91990.34;4988833;28;20052;-89
2021/12/05 06:48:07;;;;;;;1.50;0.80;;;;;;;15.39;41.82;91985.50;4984015;28;20453;-89
2021/12/05 06:50:32;;;;;;;0.70;0.70;;;;;;;15.43;41.89;91983.19;4972780;28;20046;-88
2021/12/05 06:52:58;;;;;;;1.17;0.88;;;;;;;15.34;41.95;91989.09;4972995;28;20049;-88
2021/12/05 06:55:23;;;;;;;1.27;0.80;;;;;;;15.34;41.72;91988.34;4972506;28;20042;-88
2021/12/05 06:57:48;;;;;;;0.90;0.70;;;;;;;15.34;41.96;91997.25;4973326;28;20050;-93
2021/12/05 07:00:19;;;;;;;0.70;0.70;;;;;;;15.37;41.94;91992.75;4956207;28;20571;-89
2021/12/05 07:02:45;;;;;;;0.73;0.70;;;;;;;15.35;41.97;91976.94;4998880;28;20152;-89
2021/12/05 07:05:22;;;;;;;0.70;0.70;;;;;;;15.33;42.06;91981.44;4987701;28;20632;-89
2021/12/05 07:07:48;;;;;;;0.98;0.90;;;;;;;15.33;41.93;91976.72;4988808;28;20042;-89
2021/12/05 07:10:15;;;;;;;1.02;0.70;;;;;;;15.32;41.85;91986.16;4972369;28;20170;-89
2021/12/05 07:13:20;;;;;;;0.77;0.65;;;;;;;15.34;41.97;91999.25;4973114;28;20393;-88
2021/12/05 07:26:08;;;;;;;0.80;0.80;;;;;;;15.36;41.75;92008.34;4988769;28;20038;-88
2021/12/05 07:42:23;;;;;;;0.70;0.70;;;;;;;15.36;42.24;92021.25;4948214;28;20079;-90
2021/12/05 07:44:48;;;;;;;;;;;;;;;15.35;41.86;92028.66;4948768;28;20515;-89
2021/12/05 07:47:18;;;;;;;1.02;0.77;;;;;;;15.36;41.57;92032.13;4969643;28;19946;-88
2021/12/05 07:49:44;;;;;;;0.75;0.65;;;;;;;15.35;41.76;92033.38;4952259;28;20057;-89
2021/12/05 07:52:14;;;;;;;1.80;0.63;;;;;;;15.38;42.04;92035.03;4939706;28;20502;-88
2021/12/05 07:54:44;;;;;;;0.97;0.87;;;;;;;15.36;42.15;92019.25;4948575;28;20039;-89
2021/12/05 07:57:19;;;;;;;0.80;0.60;;;;;;;15.35;41.77;92015.06;4931753;29;20365;-89
2021/12/05 08:00:07;;;;;;;1.13;0.90;;;;;;;15.33;41.94;92003.97;4948416;29;20042;-89
2021/12/05 08:16:17;;;;;;;0.73;0.73;;;;;;;15.29;42.14;92000.09;4968221;28;20037;-89
2021/12/05 08:18:42;;;;;;;0.68;0.65;;;;;;;15.34;41.85;92013.59;5001211;28;20039;-89
2021/12/05 08:21:08;;;;;;;0.70;0.60;;;;;;;15.33;41.70;92036.63;4971597;28;20544;-88
2021/12/05 08:23:33;;;;;;;0.70;0.70;;;;;;;15.36;41.89;92040.28;4971942;28;20561;-89
2021/12/05 08:26:06;;;;;;;0.60;0.60;;;;;;;15.37;41.91;92030.88;4971833;28;20034;-89
2021/12/05 08:31:14;;;;;;;1.10;0.95;;;;;;;15.35;41.79;92033.38;4987966;28;20409;-88
2021/12/05 08:33:52;;;;;;;0.57;0.57;;;;;;;15.41;41.68;92034.00;4991033;28;20037;-88
2021/12/05 09:08:47;;;;;;;0.63;0.60;;;;;;;15.35;42.05;92082.41;4990697;28;20096;-89
2021/12/05 09:24:40;;;;;;;0.50;0.50;;;;;;;15.42;42.07;92096.09;4990561;28;20042;-90
2021/12/05 09:27:41;;;;;;;0.60;0.52;;;;;;;15.36;41.97;92098.22;4990026;28;20038;-88
2021/12/05 10:10:33;;;;;;;0.88;0.60;;;;;;;15.32;42.07;92037.88;4972210;28;20069;-89
2021/12/05 10:16:05;;;;;;;0.70;0.70;;;;;;;15.34;41.82;92046.25;4988647;28;20396;-91
2021/12/05 10:37:49;;;;;;;0.50;0.50;;;;;;;15.40;41.64;92018.91;4974539;28;20121;-88
2021/12/05 10:40:20;;;;;;;0.43;0.43;;;;;;;15.36;41.89;92024.69;4974553;28;20507;-90
2021/12/05 10:42:50;;;;;;;0.50;0.50;;;;;;;15.36;41.99;92027.41;4973441;28;20525;-88
2021/12/05 10:45:19;;;;;;;0.88;0.70;;;;;;;15.41;41.83;92034.72;4972490;28;20049;-88
2021/12/05 10:47:49;;;;;;;0.68;0.50;;;;;;;15.38;42.02;92032.31;4989755;28;20375;-88
2021/12/05 10:50:43;;;;;;;0.47;0.47;;;;;;;15.37;41.81;92028.84;4973543;28;20031;-89
2021/12/05 10:53:31;;;;;;;0.63;0.50;;;;;;;15.39;41.95;92020.91;4971752;28;20429;-90
2021/12/05 10:56:00;;;;;;;1.42;0.60;;;;;;;15.36;41.82;92019.25;4973320;28;20053;-90
2021/12/05 10:58:40;;;;;;;0.85;0.60;;;;;;;15.38;42.12;92018.69;4988613;28;20441;-91
2021/12/05 11:01:13;;;;;;;0.80;0.60;;;;;;;15.38;41.96;92010.53;4972856;28;20045;-90
2021/12/05 11:03:38;;;;;;;0.75;0.60;;;;;;;15.34;41.83;92013.59;4969712;28;20077;-89
2021/12/05 11:06:23;;;;;;;1.17;0.88;;;;;;;15.36;42.13;92024.69;4999810;28;20572;-90
2021/12/05 11:08:55;;;;;;;0.70;0.70;;;;;;;15.42;41.89;92030.00;4989078;28;20414;-90
2021/12/05 11:11:21;;;;;;;0.77;0.68;;;;;;;15.41;41.86;92029.28;4972052;28;20066;-89
2021/12/05 11:13:46;;;;;;;0.60;0.60;;;;;;;15.38;41.87;92035.78;4974777;28;20531;-95
2021/12/05 11:16:32;;;;;;;0.47;0.47;;;;;;;15.38;41.73;92041.22;5000289;28;20058;-89
2021/12/05 11:18:57;;;;;;;0.75;0.75;;;;;;;15.41;41.78;92040.16;4989222;28;20042;-93
2021/12/05 11:21:29;;;;;;;1.02;0.68;;;;;;;15.37;41.76;92047.91;4987403;28;20050;-88
2021/12/05 11:24:16;;;;;;;1.17;0.90;;;;;;;15.43;41.54;92053.25;4988913;28;20050;-89
2021/12/05 11:26:42;;;;;;;0.65;0.50;;;;;;;15.46;41.66;92041.31;4972906;28;20501;-89
2021/12/05 11:29:08;;;;;;;0.40;0.40;;;;;;;15.38;41.91;92045.94;4971305;28;20105;-90
2021/12/05 11:31:34;;;;;;;0.93;0.60;;;;;;;15.43;42.01;92053.25;4972408;28;20035;-89
2021/12/05 11:33:59;;;;;;;0.52;0.52;;;;;;;15.42;42.10;92052.53;4989049;28;20065;-90
2021/12/05 11:36:28;;;;;;;0.88;0.55;;;;;;;15.40;41.86;92060.47;4956116;28;20516;-89
2021/12/05 11:38:54;;;;;;;0.68;0.52;;;;;;;15.42;42.00;92068.88;4972479;28;20042;-89
2021/12/05 11:41:20;;;;;;;0.70;0.70;;;;;;;15.44;41.86;92062.91;4987618;28;20030;-90
2021/12/05 11:43:56;;;;;;;0.80;0.70;;;;;;;15.43;41.71;92050.53;4988408;28;20115;-92
2021/12/05 11:46:35;;;;;;;0.75;0.50;;;;;;;15.38;42.03;92063.00;4972214;28;20047;-89
2021/12/05 11:49:08;;;;;;;0.50;0.50;;;;;;;15.35;41.90;92055.91;4947556;28;20565;-89
2021/12/05 11:51:47;;;;;;;1.25;0.70;;;;;;;15.39;41.83;92064.47;4988127;28;20045;-90
2021/12/05 11:54:13;;;;;;;0.65;0.47;;;;;;;15.42;42.17;92062.69;4987425;28;20046;-89
2021/12/05 11:56:50;;;;;;;0.63;0.63;;;;;;;15.40;41.82;92063.22;4990284;28;20112;-90
2021/12/05 11:59:21;;;;;;;0.75;0.70;;;;;;;15.42;42.03;92060.69;4987595;28;20043;-89
2021/12/05 12:01:54;;;;;;;0.63;0.60;;;;;;;15.42;41.51;92051.78;4972623;28;20098;-90
2021/12/05 12:04:24;;;;;;;1.10;0.73;;;;;;;15.40;41.87;92063.22;4972437;28;20287;-88
2021/12/05 12:07:07;;;;;;;0.63;0.60;;;;;;;15.38;41.96;92062.25;4971652;28;20497;-88
2021/12/05 12:09:32;;;;;;;1.30;0.63;;;;;;;15.41;42.01;92053.78;4974750;28;20126;-91
2021/12/05 12:11:58;;;;;;;0.77;0.63;;;;;;;15.44;41.78;92049.28;4992213;28;20043;-91
2021/12/05 12:14:23;;;;;;;0.60;0.60;;;;;;;15.42;41.82;92049.06;4991739;28;20077;-89
2021/12/05 12:16:50;;;;;;;0.70;0.65;;;;;;;15.46;41.76;92051.47;4989570;28;20045;-89
2021/12/05 12:19:21;;;;;;;0.60;0.60;;;;;;;15.37;41.91;92049.94;4990890;28;20035;-89
2021/12/05 12:21:48;;;;;;;0.57;0.57;;;;;;;15.43;42.24;92048.56;4991392;28;20678;-90
2021/12/05 12:24:15;;;;;;;0.55;0.55;;;;;;;15.42;41.80;92041.63;4975355;28;20113;-90
2021/12/05 12:26:41;;;;;;;1.02;0.80;;;;;;;15.45;41.49;92050.75;4975922;28;20042;-88
2021/12/05 12:29:08;;;;;;;1.27;0.80;;;;;;;15.41;41.78;92048.34;4974205;28;20035;-88
2021/12/05 12:31:35;;;;;;;0.57;0.52;;;;;;;15.41;42.01;92047.59;4975641;28;20039;-89
2021/12/05 12:34:10;;;;;;;0.65;0.43;;;;;;;15.38;41.98;92043.94;4991800;28;20476;-88
2021/12/05 12:36:35;;;;;;;0.90;0.60;;;;;;;15.36;42.16;92043.75;4975733;28;20133;-90
2021/12/05 12:39:06;;;;;;;0.70;0.60;;;;;;;15.39;42.17;92039.22;4992519;28;20134;-89
2021/12/05 12:41:32;;;;;;;1.40;0.60;;;;;;;15.44;41.84;92030.22;4974592;28;20077;-89
2021/12/05 12:44:01;;;;;;;0.50;0.50;;;;;;;15.43;42.04;92031.47;4975586;28;20533;-90
2021/12/05 12:46:48;;;;;;;0.60;0.60;;;;;;;15.37;42.16;92023.41;4975488;28;20050;-90
2021/12/05 12:49:14;;;;;;;0.57;0.57;;;;;;;15.38;41.84;92024.13;4969626;28;20042;-89
2021/12/05 12:51:45;;;;;;;0.40;0.40;;;;;;;15.42;41.87;92028.03;4991330;28;20449;-92
2021/12/05 12:54:18;;;;;;;0.70;0.60;;;;;;;15.47;41.72;92020.28;4970839;28;20039;-89
2021/12/05 12:57:06;;;;;;;0.60;0.60;;;;;;;15.44;41.58;92038.38;5003239;28;20046;-89
2021/12/05 12:59:35;;;;;;;0.80;0.55;;;;;;;15.38;41.81;92029.59;5003352;28;20035;-90
2021/12/05 13:10:42;;;;;;;0.60;0.60;;;;;;;15.42;41.97;92019.13;4990365;28;20046;-89
2021/12/05 13:13:14;;;;;;;0.88;0.60;;;;;;;15.39;42.25;92018.19;4974850;28;20034;-92
2021/12/05 13:15:48;;;;;;;0.47;0.47;;;;;;;15.38;42.15;92011.25;4995040;28;20034;-89
2021/12/05 13:18:13;;;;;;;0.77;0.50;;;;;;;15.36;42.02;92021.25;5002881;28;20429;-89
2021/12/05 13:20:42;;;;;;;0.40;0.40;;;;;;;15.36;41.97;92021.25;5005858;28;20053;-91
2021/12/05 13:23:10;;;;;;;0.65;0.52;;;;;;;15.38;42.01;92013.97;4991432;28;20050;-89
2021/12/05 13:26:02;;;;;;;0.60;0.60;;;;;;;15.34;42.04;92019.03;4990891;28;20066;-89
2021/12/05 13:28:28;;;;;;;0.50;0.50;;;;;;;15.34;42.06;92016.31;4974028;28;20367;-89
2021/12/05 13:30:53;;;;;;;0.60;0.60;;;;;;;15.37;42.15;92022.69;4990066;28;20093;-88
2021/12/05 13:33:20;;;;;;;1.48;0.60;;;;;;;15.35;42.05;92033.38;4974382;28;20034;-89
2021/12/05 13:35:46;;;;;;;0.50;0.50;;;;;;;15.40;41.93;92032.53;4974629;28;20042;-89
2021/12/05 13:38:41;;;;;;;0.70;0.55;;;;;;;15.42;42.10;92032.72;4990601;28;20035;-89
2021/12/05 13:41:10;;;;;;;1.65;0.90;;;;;;;15.38;42.10;92032.31;4933766;28;20569;-89
2021/12/05 13:43:36;;;;;;;1.10;0.90;;;;;;;15.35;41.92;92031.41;4950328;28;20046;-90
2021/12/05 13:46:03;;;;;;;1.67;0.93;;;;;;;15.35;42.27;92038.81;4934434;29;20035;-90
2021/12/05 13:48:29;;;;;;;0.80;0.75;;;;;;;15.35;42.12;92023.22;4933770;29;20562;-89
2021/12/05 13:51:00;;;;;;;0.50;0.50;;;;;;;15.37;42.19;92028.84;4933685;29;20050;-90
2021/12/05 13:53:27;;;;;;;1.88;0.90;;;;;;;15.37;41.73;92020.69;4949922;28;20088;-89
2021/12/05 13:56:01;;;;;;;0.63;0.60;;;;;;;15.38;41.68;92027.59;4933459;29;20044;-89
2021/12/05 13:58:35;;;;;;;1.90;1.40;;;;;;;15.42;42.02;92030.00;4949856;28;20047;-89
2021/12/05 14:01:25;;;;;;;0.88;0.80;;;;;;;15.43;41.85;92026.03;4966065;28;20051;-89
2021/12/05 14:03:56;;;;;;;2.08;1.33;;;;;;;15.43;41.95;92024.03;4947092;28;20046;-90
2021/12/05 14:06:35;;;;;;;1.48;0.80;;;;;;;15.41;42.07;92021.09;4951356;28;20047;-90
2021/12/05 14:09:23;;;;;;;3.00;1.63;;;;;;;15.41;41.83;92031.25;4948437;28;20055;-92
2021/12/05 14:12:08;;;;;;;1.20;0.80;;;;;;;15.40;42.04;92041.44;4964340;28;20074;-88
2021/12/05 14:14:47;;;;;;;1.23;0.90;;;;;;;15.42;42.01;92032.72;4965092;28;20039;-92
2021/12/05 14:17:15;;;;;;;1.70;1.23;;;;;;;15.44;42.14;92041.84;4981325;28;20049;-89
2021/12/05 14:19:42;;;;;;;2.17;1.35;;;;;;;15.40;41.95;92048.84;4988792;28;20567;-88
2021/12/05 14:22:09;;;;;;;1.13;0.90;;;;;;;15.40;42.15;92046.88;4972921;28;20049;-88
2021/12/05 14:24:37;;;;;;;2.20;1.33;;;;;;;15.38;42.02;92037.75;4989781;28;20150;-89
2021/12/05 14:27:07;;;;;;;2.20;1.60;;;;;;;15.34;42.24;92046.25;4973043;28;20038;-88
2021/12/05 14:29:35;;;;;;;2.22;1.00;;;;;;;15.43;41.80;92051.28;4973127;28;20495;-89
2021/12/05 14:32:07;;;;;;;1.50;1.25;;;;;;;15.46;41.81;92038.59;4988929;28;20046;-89
2021/12/05 14:34:33;;;;;;;1.70;1.27;;;;;;;15.49;41.96;92048.44;4973347;28;20054;-89
2021/12/05 14:37:02;;;;;;;1.50;1.00;;;;;;;15.44;42.06;92050.03;4989564;28;20054;-88
2021/12/05 14:39:29;;;;;;;1.38;0.82;;;;;;;15.42;41.99;92052.53;4972441;28;20392;-88
2021/12/05 14:42:15;;;;;;;1.35;1.17;;;;;;;15.41;42.22;92055.78;4988874;28;20034;-91
2021/12/05 14:44:41;;;;;;;2.10;1.33;;;;;;;15.47;42.02;92059.13;4958700;28;20413;-89
2021/12/05 14:47:09;;;;;;;1.05;0.90;;;;;;;15.42;41.76;92059.97;4960906;28;20172;-89
2021/12/05 14:49:38;;;;;;;1.58;1.08;;;;;;;15.39;41.79;92067.19;4993099;28;20033;-88
2021/12/05 14:52:06;;;;;;;1.83;0.95;;;;;;;15.37;42.21;92075.16;4972287;28;20486;-88
2021/12/05 14:54:35;;;;;;;3.88;1.98;;;;;;;15.40;42.16;92079.53;4989050;28;20493;-88
2021/12/05 14:57:07;;;;;;;1.95;1.65;;;;;;;15.40;42.13;92081.53;4956922;28;20527;-88
2021/12/05 14:59:33;;;;;;;2.20;1.55;;;;;;;15.40;41.94;92087.72;4972143;28;20057;-89
2021/12/05 15:01:58;;;;;;;1.05;0.82;;;;;;;15.38;42.12;92095.66;4995142;28;20033;-88
2021/12/05 15:04:30;;;;;;;2.38;1.60;;;;;;;15.44;41.93;92074.53;5008674;28;20246;-88
2021/12/05 15:06:55;;;;;;;4.38;2.08;;;;;;;15.51;41.96;92084.06;5001922;28;20054;-89
2021/12/05 15:09:24;;;;;;;4.65;2.58;;;;;;;15.45;42.22;92075.25;4972233;28;20129;-88
2021/12/05 15:11:58;;;;;;;2.65;1.60;;;;;;;15.46;41.80;92089.59;4957080;28;20066;-88
2021/12/05 15:14:23;;;;;;;1.88;1.17;;;;;;;15.42;41.47;92096.09;4972090;28;20159;-88
2021/12/05 15:16:56;;;;;;;2.17;1.70;;;;;;;15.42;41.88;92087.19;4985163;28;20076;-88
2021/12/05 15:19:22;;;;;;;0.88;0.85;;;;;;;15.46;41.98;92090.34;4997838;28;20034;-88
2021/12/05 15:21:48;;;;;;;2.25;1.05;;;;;;;15.43;41.82;92075.03;4988151;28;20051;-88
2021/12/05 15:24:14;;;;;;;1.00;0.90;;;;;;;15.39;42.09;92072.63;4955520;28;20515;-90
2021/12/05 15:26:40;;;;;;;4.20;2.75;;;;;;;15.36;42.00;92081.88;4972362;28;20527;-88
2021/12/05 15:29:05;;;;;;;2.80;2.17;;;;;;;15.34;42.16;92086.38;4971517;28;20031;-88
2021/12/05 15:31:39;;;;;;;3.63;2.25;;;;;;;15.37;42.00;92094.19;4971424;28;20039;-91
2021/12/05 15:34:23;;;;;;;2.70;1.50;;;;;;;15.39;41.99;92097.13;4955722;28;20070;-88
2021/12/05 15:36:48;;;;;;;3.08;1.77;;;;;;;15.38;41.77;92108.56;4988255;28;20514;-88
2021/12/05 15:39:19;;;;;;;3.88;2.50;;;;;;;15.40;41.94;92111.50;4987491;28;20077;-87
2021/12/05 15:41:50;;;;;;;2.17;1.17;;;;;;;15.41;42.22;92102.06;4988410;28;20046;-88
2021/12/05 15:44:34;;;;;;;1.85;1.27;;;;;;;15.41;41.76;92108.25;4954857;28;20117;-88
2021/12/05 15:47:08;;;;;;;2.40;1.52;;;;;;;15.42;42.02;92109.72;4991922;28;20092;-87
2021/12/05 15:49:41;;;;;;;2.45;1.60;;;;;;;15.39;42.38;92102.59;4992483;28;20114;-88
2021/12/05 15:52:06;;;;;;;3.95;2.33;;;;;;;15.38;42.57;92103.84;4987633;28;20046;-88
2021/12/05 15:54:32;;;;;;;5.95;3.65;;;;;;;15.45;41.84;92102.50;4971914;28;20038;-88
2021/12/05 15:57:13;;;;;;;3.30;2.38;;;;;;;15.36;42.24;92111.09;4989487;28;20046;-88
2021/12/05 15:59:40;;;;;;;;;;;;;;;15.40;42.04;92114.94;4973706;28;20045;-90
2021/12/05 16:02:10;;;;;;;3.38;2.30;;;;;;;15.34;42.13;92117.06;5027061;28;19917;-88
2021/12/05 16:04:35;;;;;;;2.92;1.80;;;;;;;15.37;42.50;92137.06;4992234;28;20123;-87
2021/12/05 16:07:00;;;;;;;3.67;2.30;;;;;;;15.34;42.11;92127.94;5002665;28;20512;-87
2021/12/05 16:09:27;;;;;;;3.03;1.95;;;;;;;15.36;42.12;92133.59;4987500;28;20305;-88
2021/12/05 16:12:10;;;;;;;3.25;1.80;;;;;;;15.38;42.12;92141.22;4971692;28;20065;-87
2021/12/05 16:14:37;;;;;;;6.40;4.15;;;;;;;15.47;41.79;92134.66;4968536;28;20039;-88
2021/12/05 16:17:21;;;;;;;3.03;2.38;;;;;;;15.41;41.86;92137.47;5018622;28;20069;-87
2021/12/05 16:20:15;;;;;;;3.15;2.10;;;;;;;15.40;41.80;92133.28;4997093;28;20130;-87
2021/12/05 16:23:09;;;;;;;2.33;1.73;;;;;;;15.38;42.03;92133.78;4987416;28;20408;-87
2021/12/05 16:25:39;;;;;;;3.78;2.78;;;;;;;15.40;41.80;92136.00;4912672;29;20447;-88
2021/12/05 16:28:05;;;;;;;3.83;2.25;;;;;;;15.32;42.11;92143.34;4940996;28;20039;-88
2021/12/05 16:30:35;;;;;;;4.40;2.42;;;;;;;15.39;42.01;92146.16;4936974;28;20095;-87
2021/12/05 16:33:01;;;;;;;5.82;3.78;;;;;;;15.33;42.18;92136.63;4943675;29;20126;-89
2021/12/05 16:35:31;;;;;;;6.55;4.05;;;;;;;15.36;42.17;92143.75;4928280;29;20554;-92
2021/12/05 16:37:56;;;;;;;9.48;7.95;;;;;;;15.38;42.29;92136.50;4927824;29;20188;-92
2021/12/05 16:40:22;;;;;;;7.45;5.05;;;;;;;15.44;42.22;92142.59;4912907;28;20392;-89
2021/12/05 16:42:47;;;;;;;85.75;64.10;;;;;;;15.47;42.19;92140.09;4912080;28;20127;-89
2021/12/05 16:45:13;;;;;;;26.75;12.30;;;;;;;15.50;42.03;92139.06;4959212;28;20114;-87
2021/12/05 16:47:38;;;;;;;4.35;2.60;;;;;;;15.52;42.08;92133.81;4955621;28;20112;-88
2021/12/05 16:50:07;;;;;;;15.00;9.02;;;;;;;15.58;41.87;92135.22;4960412;28;20040;-89